sensor_id;sensor_type;location;lat;lon;timestamp;pressure;altitude;pressure_sealevel;temperature;humidity
20013;BME280;10167;42.852;23.042;2023-01-15T00:00:36;95301.34;;;4.37;100.00
20013;BME280;10167;42.852;23.042;2023-01-15T00:03:05;95297.66;;;4.32;100.00
20013;BME280;10167;42.852;23.042;2023-01-15T00:05:36;95293.53;;;4.23;100.00
20013;BME280;10167;42.852;23.042;2023-01-15T00:08:06;95300.78;;;4.21;100.00
20013;BME280;10167;42.852;23.042;2023-01-15T00:10:35;95304.03;;;4.23;100.00
20013;BME280;10167;42.852;23.042;2023-01-15T00:13:04;95298.34;;;4.19;100.00
20013;BME280;10167;42.852;23.042;2023-01-15T00:15:33;95297.03;;;4.30;100.00
20013;BME280;10167;42.852;23.042;2023-01-15T00:18:03;95300.41;;;4.24;100.00
20013;BME280;10167;42.852;23.042;2023-01-15T00:20:32;95295.34;;;4.22;100.00
20013;BME280;10167;42.852;23.042;2023-01-15T00:23:03;95301.22;;;4.24;100.00
20013;BME280;10167;42.852;23.042;2023-01-15T00:25:32;95309.44;;;4.21;100.00
20013;BME280;10167;42.852;23.042;2023-01-15T00:28:18;95298.84;;;4.29;100.00
20013;BME280;10167;42.852;23.042;2023-01-15T00:30:47;95308.09;;;4.25;100.00
20013;BME280;10167;42.852;23.042;2023-01-15T00:33:16;95302.41;;;4.22;100.00
20013;BME280;10167;42.852;23.042;2023-01-15T00:35:47;95302.53;;;4.35;100.00
20013;BME280;10167;42.852;23.042;2023-01-15T00:38:18;95307.72;;;4.28;100.00
20013;BME280;10167;42.852;23.042;2023-01-15T00:40:47;95296.91;;;4.38;100.00
20013;BME280;10167;42.852;23.042;2023-01-15T00:43:19;95302.19;;;4.45;100.00
20013;BME280;10167;42.852;23.042;2023-01-15T00:45:48;95302.56;;;4.42;100.00
20013;BME280;10167;42.852;23.042;2023-01-15T00:48:17;95303.66;;;4.47;100.00
20013;BME280;10167;42.852;23.042;2023-01-15T00:50:46;95302.56;;;4.42;100.00
20013;BME280;10167;42.852;23.042;2023-01-15T00:53:15;95304.50;;;4.54;100.00
20013;BME280;10167;42.852;23.042;2023-01-15T00:55:46;95298.03;;;4.50;100.00
20013;BME280;10167;42.852;23.042;2023-01-15T00:58:15;95299.25;;;4.54;100.00
20013;BME280;10167;42.852;23.042;2023-01-15T01:00:44;95298.88;;;4.57;100.00
20013;BME280;10167;42.852;23.042;2023-01-15T01:03:13;95302.50;;;4.56;100.00
20013;BME280;10167;42.852;23.042;2023-01-15T01:05:42;95291.97;;;4.50;100.00
20013;BME280;10167;42.852;23.042;2023-01-15T01:08:13;95291.97;;;4.50;100.00
20013;BME280;10167;42.852;23.042;2023-01-15T01:10:42;95300.25;;;4.53;100.00
20013;BME280;10167;42.852;23.042;2023-01-15T01:13:13;95295.97;;;4.46;100.00
20013;BME280;10167;42.852;23.042;2023-01-15T01:15:42;95295.41;;;4.50;100.00
20013;BME280;10167;42.852;23.042;2023-01-15T01:18:11;95294.44;;;4.58;100.00
20013;BME280;10167;42.852;23.042;2023-01-15T01:20:40;95301.25;;;4.52;100.00
20013;BME280;10167;42.852;23.042;2023-01-15T01:23:09;95303.50;;;4.55;100.00
20013;BME280;10167;42.852;23.042;2023-01-15T01:25:38;95297.44;;;4.55;100.00
20013;BME280;10167;42.852;23.042;2023-01-15T01:28:08;95291.97;;;4.50;100.00
20013;BME280;10167;42.852;23.042;2023-01-15T01:30:38;95291.72;;;4.45;100.00
20013;BME280;10167;42.852;23.042;2023-01-15T01:33:07;95293.78;;;4.49;100.00
20013;BME280;10167;42.852;23.042;2023-01-15T01:35:37;95299.75;;;4.43;100.00
20013;BME280;10167;42.852;23.042;2023-01-15T01:38:06;95290.78;;;4.31;100.00
20013;BME280;10167;42.852;23.042;2023-01-15T01:40:37;95285.97;;;4.34;100.00
20013;BME280;10167;42.852;23.042;2023-01-15T01:43:16;95282.06;;;4.24;100.00
20013;BME280;10167;42.852;23.042;2023-01-15T01:45:49;95285.69;;;4.23;100.00
20013;BME280;10167;42.852;23.042;2023-01-15T01:48:23;95280.56;;;4.36;100.00
20013;BME280;10167;42.852;23.042;2023-01-15T01:50:54;95285.53;;;4.31;100.00
20013;BME280;10167;42.852;23.042;2023-01-15T01:53:29;95278.44;;;4.25;100.00
20013;BME280;10167;42.852;23.042;2023-01-15T01:55:59;95283.53;;;4.33;100.00
20013;BME280;10167;42.852;23.042;2023-01-15T01:58:30;95290.03;;;4.37;100.00
20013;BME280;10167;42.852;23.042;2023-01-15T02:01:02;95286.84;;;4.42;100.00
20013;BME280;10167;42.852;23.042;2023-01-15T02:03:34;95282.03;;;4.45;100.00
20013;BME280;10167;42.852;23.042;2023-01-15T02:06:07;95283.66;;;4.46;100.00
20013;BME280;10167;42.852;23.042;2023-01-15T02:08:37;95284.03;;;4.43;100.00
20013;BME280;10167;42.852;23.042;2023-01-15T02:11:11;95286.03;;;4.41;100.00
20013;BME280;10167;42.852;23.042;2023-01-15T02:13:50;95279.56;;;4.37;100.00
20013;BME280;10167;42.852;23.042;2023-01-15T02:16:25;95276.50;;;4.33;100.00
20013;BME280;10167;42.852;23.042;2023-01-15T02:19:03;95272.94;;;4.20;100.00
20013;BME280;10167;42.852;23.042;2023-01-15T02:21:48;95274.44;;;3.86;100.00
20013;BME280;10167;42.852;23.042;2023-01-15T02:24:23;95271.22;;;4.06;100.00
20013;BME280;10167;42.852;23.042;2023-01-15T02:27:06;95271.72;;;4.16;100.00
20013;BME280;10167;42.852;23.042;2023-01-15T02:29:53;95274.63;;;4.27;100.00
20013;BME280;10167;42.852;23.042;2023-01-15T02:32:30;95274.69;;;4.34;100.00
20013;BME280;10167;42.852;23.042;2023-01-15T02:35:05;95273.50;;;4.36;100.00
20013;BME280;10167;42.852;23.042;2023-01-15T02:37:40;95281.22;;;4.45;100.00
20013;BME280;10167;42.852;23.042;2023-01-15T02:40:16;95281.84;;;4.47;100.00
20013;BME280;10167;42.852;23.042;2023-01-15T02:42:48;95281.38;;;4.36;100.00
20013;BME280;10167;42.852;23.042;2023-01-15T02:45:21;95283.78;;;4.59;100.00
20013;BME280;10167;42.852;23.042;2023-01-15T02:48:02;95283.78;;;4.59;100.00
20013;BME280;10167;42.852;23.042;2023-01-15T02:50:38;95285.81;;;4.64;100.00
20013;BME280;10167;42.852;23.042;2023-01-15T02:53:11;95287.03;;;4.61;100.00
20013;BME280;10167;42.852;23.042;2023-01-15T02:55:47;95282.53;;;4.55;100.00
20013;BME280;10167;42.852;23.042;2023-01-15T02:58:25;95279.84;;;4.49;100.00
20013;BME280;10167;42.852;23.042;2023-01-15T03:01:01;95273.19;;;4.46;100.00
20013;BME280;10167;42.852;23.042;2023-01-15T03:03:37;95274.28;;;4.58;100.00
20013;BME280;10167;42.852;23.042;2023-01-15T03:06:13;95279.91;;;4.55;100.00
20013;BME280;10167;42.852;23.042;2023-01-15T03:08:46;95285.63;;;4.65;100.00
20013;BME280;10167;42.852;23.042;2023-01-15T03:11:18;95285.22;;;4.62;100.00
20013;BME280;10167;42.852;23.042;2023-01-15T03:13:59;95277.91;;;4.57;100.00
20013;BME280;10167;42.852;23.042;2023-01-15T03:16:34;95277.06;;;4.50;100.00
20013;BME280;10167;42.852;23.042;2023-01-15T03:19:14;95278.59;;;4.45;100.00
20013;BME280;10167;42.852;23.042;2023-01-15T03:21:54;95276.94;;;4.37;100.00
20013;BME280;10167;42.852;23.042;2023-01-15T03:24:28;95272.50;;;4.37;100.00
20013;BME280;10167;42.852;23.042;2023-01-15T03:27:00;95270.88;;;4.36;100.00
20013;BME280;10167;42.852;23.042;2023-01-15T03:29:32;95264.75;;;4.29;100.00
20013;BME280;10167;42.852;23.042;2023-01-15T03:32:06;95272.69;;;4.36;100.00
20013;BME280;10167;42.852;23.042;2023-01-15T03:34:42;95266.63;;;4.35;100.00
20013;BME280;10167;42.852;23.042;2023-01-15T03:37:17;95270.22;;;4.28;100.00
20013;BME280;10167;42.852;23.042;2023-01-15T03:39:47;95275.31;;;4.36;100.00
20013;BME280;10167;42.852;23.042;2023-01-15T03:42:34;95271.25;;;4.33;100.00
20013;BME280;10167;42.852;23.042;2023-01-15T03:45:13;95270.28;;;4.41;100.00
20013;BME280;10167;42.852;23.042;2023-01-15T03:47:55;95268.13;;;4.45;100.00
20013;BME280;10167;42.852;23.042;2023-01-15T03:50:34;95271.19;;;4.48;100.00
20013;BME280;10167;42.852;23.042;2023-01-15T03:53:11;95271.69;;;4.37;100.00
20013;BME280;10167;42.852;23.042;2023-01-15T03:55:52;95273.00;;;4.48;100.00
20013;BME280;10167;42.852;23.042;2023-01-15T03:58:28;95267.56;;;4.49;100.00
20013;BME280;10167;42.852;23.042;2023-01-15T04:01:01;95272.03;;;4.55;100.00
20013;BME280;10167;42.852;23.042;2023-01-15T04:03:33;95268.31;;;4.43;100.00
20013;BME280;10167;42.852;23.042;2023-01-15T04:06:04;95270.56;;;4.46;100.00
20013;BME280;10167;42.852;23.042;2023-01-15T04:08:38;95266.13;;;4.47;100.00
20013;BME280;10167;42.852;23.042;2023-01-15T04:11:08;95275.97;;;4.45;100.00
20013;BME280;10167;42.852;23.042;2023-01-15T04:13:45;95276.78;;;4.45;100.00
20013;BME280;10167;42.852;23.042;2023-01-15T04:16:31;95273.53;;;4.43;100.00
20013;BME280;10167;42.852;23.042;2023-01-15T04:19:02;95266.25;;;4.38;100.00
20013;BME280;10167;42.852;23.042;2023-01-15T04:21:34;95268.56;;;4.48;100.00
20013;BME280;10167;42.852;23.042;2023-01-15T04:24:03;95280.28;;;4.52;100.00
20013;BME280;10167;42.852;23.042;2023-01-15T04:26:32;95273.06;;;4.33;100.00
20013;BME280;10167;42.852;23.042;2023-01-15T04:29:01;95270.13;;;4.21;100.00
20013;BME280;10167;42.852;23.042;2023-01-15T04:31:32;95270.06;;;4.36;100.00
20013;BME280;10167;42.852;23.042;2023-01-15T04:34:03;95264.00;;;4.35;100.00
20013;BME280;10167;42.852;23.042;2023-01-15T04:36:32;95266.19;;;4.32;100.00
20013;BME280;10167;42.852;23.042;2023-01-15T04:39:03;95273.13;;;4.40;100.00
20013;BME280;10167;42.852;23.042;2023-01-15T04:41:32;95275.34;;;4.43;100.00
20013;BME280;10167;42.852;23.042;2023-01-15T04:44:22;95263.75;;;4.30;100.00
20013;BME280;10167;42.852;23.042;2023-01-15T04:46:55;95259.50;;;4.29;100.00
20013;BME280;10167;42.852;23.042;2023-01-15T04:49:26;95255.69;;;4.32;100.00
20013;BME280;10167;42.852;23.042;2023-01-15T04:51:55;95246.25;;;4.10;100.00
20013;BME280;10167;42.852;23.042;2023-01-15T04:54:24;95251.66;;;4.29;100.00
20013;BME280;10167;42.852;23.042;2023-01-15T04:56:54;95257.41;;;4.40;100.00
20013;BME280;10167;42.852;23.042;2023-01-15T04:59:25;95258.44;;;4.45;100.00
20013;BME280;10167;42.852;23.042;2023-01-15T05:01:56;95257.00;;;4.43;100.00
20013;BME280;10167;42.852;23.042;2023-01-15T05:04:33;95263.06;;;4.43;100.00
20013;BME280;10167;42.852;23.042;2023-01-15T05:07:04;95264.84;;;4.15;100.00
20013;BME280;10167;42.852;23.042;2023-01-15T05:09:33;95266.88;;;3.98;100.00
20013;BME280;10167;42.852;23.042;2023-01-15T05:12:03;95272.44;;;4.10;100.00
20013;BME280;10167;42.852;23.042;2023-01-15T05:14:32;95275.16;;;4.16;100.00
20013;BME280;10167;42.852;23.042;2023-01-15T05:17:03;95274.81;;;4.26;100.00
20013;BME280;10167;42.852;23.042;2023-01-15T05:19:32;95279.06;;;4.27;100.00
20013;BME280;10167;42.852;23.042;2023-01-15T05:22:01;95277.13;;;4.35;100.00
20013;BME280;10167;42.852;23.042;2023-01-15T05:24:30;95286.03;;;4.41;100.00
20013;BME280;10167;42.852;23.042;2023-01-15T05:26:59;95283.63;;;4.40;100.00
20013;BME280;10167;42.852;23.042;2023-01-15T05:29:29;95283.38;;;4.34;100.00
20013;BME280;10167;42.852;23.042;2023-01-15T05:31:58;95280.56;;;4.36;100.00
20013;BME280;10167;42.852;23.042;2023-01-15T05:34:28;95282.81;;;4.39;100.00
20013;BME280;10167;42.852;23.042;2023-01-15T05:36:57;95278.38;;;4.40;100.00
20013;BME280;10167;42.852;23.042;2023-01-15T05:39:26;95285.00;;;4.35;100.00
20013;BME280;10167;42.852;23.042;2023-01-15T05:41:55;95283.19;;;4.36;100.00
20013;BME280;10167;42.852;23.042;2023-01-15T05:44:26;95283.19;;;4.36;100.00
20013;BME280;10167;42.852;23.042;2023-01-15T05:46:57;95285.44;;;4.39;100.00
20013;BME280;10167;42.852;23.042;2023-01-15T05:49:28;95285.44;;;4.39;100.00
20013;BME280;10167;42.852;23.042;2023-01-15T05:51:59;95286.25;;;4.40;100.00
20013;BME280;10167;42.852;23.042;2023-01-15T05:54:30;95287.47;;;4.44;100.00
20013;BME280;10167;42.852;23.042;2023-01-15T05:57:00;95284.44;;;4.40;100.00
20013;BME280;10167;42.852;23.042;2023-01-15T05:59:31;95290.59;;;4.32;100.00
20013;BME280;10167;42.852;23.042;2023-01-15T06:02:03;95278.94;;;4.35;100.00
20013;BME280;10167;42.852;23.042;2023-01-15T06:04:34;95280.28;;;4.31;100.00
20013;BME280;10167;42.852;23.042;2023-01-15T06:07:03;95286.63;;;4.36;100.00
20013;BME280;10167;42.852;23.042;2023-01-15T06:09:32;95281.09;;;4.31;100.00
20013;BME280;10167;42.852;23.042;2023-01-15T06:12:01;95280.47;;;4.29;100.00
20013;BME280;10167;42.852;23.042;2023-01-15T06:14:30;95270.56;;;4.25;100.00
20013;BME280;10167;42.852;23.042;2023-01-15T06:16:59;95273.38;;;4.23;100.00
20013;BME280;10167;42.852;23.042;2023-01-15T06:19:28;95268.94;;;4.24;100.00
20013;BME280;10167;42.852;23.042;2023-01-15T06:22:00;95273.81;;;4.27;100.00
20013;BME280;10167;42.852;23.042;2023-01-15T06:24:30;95283.09;;;4.29;100.00
20013;BME280;10167;42.852;23.042;2023-01-15T06:26:59;95276.50;;;4.33;100.00
20013;BME280;10167;42.852;23.042;2023-01-15T06:29:28;95282.72;;;4.32;100.00
20013;BME280;10167;42.852;23.042;2023-01-15T06:31:57;95281.09;;;4.31;100.00
20013;BME280;10167;42.852;23.042;2023-01-15T06:34:26;95286.16;;;4.33;100.00
20013;BME280;10167;42.852;23.042;2023-01-15T06:36:55;95279.28;;;4.32;100.00
20013;BME280;10167;42.852;23.042;2023-01-15T06:39:26;95276.00;;;4.23;100.00
20013;BME280;10167;42.852;23.042;2023-01-15T06:41:55;95283.91;;;4.30;100.00
20013;BME280;10167;42.852;23.042;2023-01-15T06:44:41;95282.72;;;4.32;100.00
20013;BME280;10167;42.852;23.042;2023-01-15T06:47:30;95281.91;;;4.32;100.00
20013;BME280;10167;42.852;23.042;2023-01-15T06:49:59;95282.56;;;4.34;100.00
20013;BME280;10167;42.852;23.042;2023-01-15T06:52:29;95277.50;;;4.32;100.00
20013;BME280;10167;42.852;23.042;2023-01-15T06:55:04;95273.19;;;4.25;100.00
20013;BME280;10167;42.852;23.042;2023-01-15T06:57:33;95274.19;;;4.24;100.00
20013;BME280;10167;42.852;23.042;2023-01-15T07:00:06;95271.75;;;4.22;100.00
20013;BME280;10167;42.852;23.042;2023-01-15T07:02:36;95277.66;;;4.31;100.00
20013;BME280;10167;42.852;23.042;2023-01-15T07:05:08;95277.94;;;4.36;100.00
20013;BME280;10167;42.852;23.042;2023-01-15T07:07:37;95285.44;;;4.39;100.00
20013;BME280;10167;42.852;23.042;2023-01-15T07:10:10;95283.81;;;4.38;100.00
20013;BME280;10167;42.852;23.042;2023-01-15T07:12:39;95291.16;;;4.49;100.00
20013;BME280;10167;42.852;23.042;2023-01-15T07:15:09;95284.47;;;4.47;100.00
20013;BME280;10167;42.852;23.042;2023-01-15T07:17:38;95281.66;;;4.48;100.00
20013;BME280;10167;42.852;23.042;2023-01-15T07:20:08;95285.63;;;4.65;100.00
20013;BME280;10167;42.852;23.042;2023-01-15T07:22:37;95285.22;;;4.62;100.00
20013;BME280;10167;42.852;23.042;2023-01-15T07:25:09;95283.16;;;4.57;100.00
20013;BME280;10167;42.852;23.042;2023-01-15T07:27:39;95294.78;;;4.76;100.00
20013;BME280;10167;42.852;23.042;2023-01-15T07:30:09;95301.09;;;4.82;100.00
20013;BME280;10167;42.852;23.042;2023-01-15T07:32:38;95300.22;;;4.74;100.00
20013;BME280;10167;42.852;23.042;2023-01-15T07:35:08;95295.03;;;4.81;100.00
20013;BME280;10167;42.852;23.042;2023-01-15T07:37:37;95293.34;;;5.01;100.00
20013;BME280;10167;42.852;23.042;2023-01-15T07:40:11;95294.78;;;5.04;100.00
20013;BME280;10167;42.852;23.042;2023-01-15T07:42:41;95295.63;;;5.11;100.00
20013;BME280;10167;42.852;23.042;2023-01-15T07:45:27;95300.31;;;5.16;100.00
20013;BME280;10167;42.852;23.042;2023-01-15T07:48:28;95294.69;;;5.25;100.00
20013;BME280;10167;42.852;23.042;2023-01-15T07:51:14;95302.81;;;5.30;100.00
20013;BME280;10167;42.852;23.042;2023-01-15T07:53:43;95298.22;;;5.39;100.00
20013;BME280;10167;42.852;23.042;2023-01-15T07:56:14;95302.66;;;5.38;100.00
20013;BME280;10167;42.852;23.042;2023-01-15T07:58:44;95299.69;;;5.55;100.00
20013;BME280;10167;42.852;23.042;2023-01-15T08:01:16;95300.56;;;5.68;100.00
20013;BME280;10167;42.852;23.042;2023-01-15T08:03:46;95298.13;;;5.67;100.00
20013;BME280;10167;42.852;23.042;2023-01-15T08:06:15;95297.38;;;5.79;100.00
20013;BME280;10167;42.852;23.042;2023-01-15T08:08:44;95304.66;;;5.84;100.00
20013;BME280;10167;42.852;23.042;2023-01-15T08:11:15;95299.81;;;5.88;100.00
20013;BME280;10167;42.852;23.042;2023-01-15T08:14:01;95307.28;;;5.84;100.00
20013;BME280;10167;42.852;23.042;2023-01-15T08:16:47;95303.28;;;5.88;100.00
20013;BME280;10167;42.852;23.042;2023-01-15T08:19:16;95306.53;;;5.90;100.00
20013;BME280;10167;42.852;23.042;2023-01-15T08:21:45;95300.31;;;6.04;100.00
20013;BME280;10167;42.852;23.042;2023-01-15T08:24:15;95305.00;;;6.15;100.00
20013;BME280;10167;42.852;23.042;2023-01-15T08:26:46;95309.44;;;6.22;100.00
20013;BME280;10167;42.852;23.042;2023-01-15T08:29:15;95311.88;;;6.23;100.00
20013;BME280;10167;42.852;23.042;2023-01-15T08:31:44;95313.72;;;6.36;100.00
20013;BME280;10167;42.852;23.042;2023-01-15T08:34:13;95310.09;;;6.50;100.00
20013;BME280;10167;42.852;23.042;2023-01-15T08:36:42;95316.97;;;6.57;100.00
20013;BME280;10167;42.852;23.042;2023-01-15T08:39:11;95322.97;;;6.05;100.00
20013;BME280;10167;42.852;23.042;2023-01-15T08:41:40;95315.75;;;6.40;100.00
20013;BME280;10167;42.852;23.042;2023-01-15T08:44:11;95310.88;;;6.44;100.00
20013;BME280;10167;42.852;23.042;2023-01-15T08:46:40;95311.09;;;6.36;100.00
20013;BME280;10167;42.852;23.042;2023-01-15T08:49:10;95311.94;;;6.43;100.00
20013;BME280;10167;42.852;23.042;2023-01-15T08:51:39;95311.63;;;6.05;100.00
20013;BME280;10167;42.852;23.042;2023-01-15T08:54:08;95309.66;;;6.33;100.00
20013;BME280;10167;42.852;23.042;2023-01-15T08:56:37;95319.59;;;6.38;100.00
20013;BME280;10167;42.852;23.042;2023-01-15T08:59:06;95313.72;;;6.36;100.00
20013;BME280;10167;42.852;23.042;2023-01-15T09:01:37;95315.53;;;6.29;100.00
20013;BME280;10167;42.852;23.042;2023-01-15T09:04:08;95317.47;;;6.00;100.00
20013;BME280;10167;42.852;23.042;2023-01-15T09:06:41;95315.13;;;6.25;100.00
20013;BME280;10167;42.852;23.042;2023-01-15T09:09:10;95308.06;;;6.45;100.00
20013;BME280;10167;42.852;23.042;2023-01-15T09:11:41;95307.63;;;6.15;100.00
20013;BME280;10167;42.852;23.042;2023-01-15T09:14:13;95303.38;;;6.34;100.00
20013;BME280;10167;42.852;23.042;2023-01-15T09:17:04;95297.75;;;6.50;100.00
20013;BME280;10167;42.852;23.042;2023-01-15T09:19:33;95303.63;;;6.39;100.00
20013;BME280;10167;42.852;23.042;2023-01-15T09:22:02;95293.50;;;6.69;100.00
20013;BME280;10167;42.852;23.042;2023-01-15T09:24:32;95280.56;;;6.74;100.00
20013;BME280;10167;42.852;23.042;2023-01-15T09:27:02;95282.78;;;6.97;100.00
20013;BME280;10167;42.852;23.042;2023-01-15T09:29:31;95289.63;;;7.18;100.00
20013;BME280;10167;42.852;23.042;2023-01-15T09:32:00;95285.09;;;7.38;100.00
20013;BME280;10167;42.852;23.042;2023-01-15T09:34:30;95282.63;;;8.01;100.00
20013;BME280;10167;42.852;23.042;2023-01-15T09:36:59;95265.28;;;8.50;100.00
20013;BME280;10167;42.852;23.042;2023-01-15T09:39:28;95260.13;;;9.29;100.00
20013;BME280;10167;42.852;23.042;2023-01-15T09:42:08;95262.69;;;9.54;100.00
20013;BME280;10167;42.852;23.042;2023-01-15T09:44:54;95248.44;;;10.22;100.00
20013;BME280;10167;42.852;23.042;2023-01-15T09:47:32;95247.28;;;10.71;100.00
20013;BME280;10167;42.852;23.042;2023-01-15T09:50:25;95241.19;;;11.17;99.87
20013;BME280;10167;42.852;23.042;2023-01-15T09:53:09;95228.63;;;11.01;98.53
20013;BME280;10167;42.852;23.042;2023-01-15T09:55:45;95232.09;;;11.64;97.34
20013;BME280;10167;42.852;23.042;2023-01-15T09:58:20;95218.56;;;11.89;95.41
20013;BME280;10167;42.852;23.042;2023-01-15T10:00:51;95217.34;;;11.80;94.58
20013;BME280;10167;42.852;23.042;2023-01-15T10:03:28;95216.00;;;12.23;92.77
20013;BME280;10167;42.852;23.042;2023-01-15T10:06:06;95209.47;;;12.14;94.05
20013;BME280;10167;42.852;23.042;2023-01-15T10:08:40;95205.19;;;11.96;93.34
20013;BME280;10167;42.852;23.042;2023-01-15T10:11:27;95199.66;;;11.86;94.08
20013;BME280;10167;42.852;23.042;2023-01-15T10:14:29;95189.25;;;11.96;94.25
20013;BME280;10167;42.852;23.042;2023-01-15T10:17:17;95194.13;;;11.87;93.81
20013;BME280;10167;42.852;23.042;2023-01-15T10:19:47;95175.59;;;12.04;93.76
20013;BME280;10167;42.852;23.042;2023-01-15T10:22:31;95179.56;;;12.35;94.71
20013;BME280;10167;42.852;23.042;2023-01-15T10:25:08;95173.38;;;12.29;93.91
20013;BME280;10167;42.852;23.042;2023-01-15T10:27:45;95171.69;;;12.40;93.40
20013;BME280;10167;42.852;23.042;2023-01-15T10:30:16;95167.56;;;12.32;93.15
20013;BME280;10167;42.852;23.042;2023-01-15T10:32:53;95160.03;;;12.41;93.99
20013;BME280;10167;42.852;23.042;2023-01-15T10:35:39;95150.72;;;11.53;96.51
20013;BME280;10167;42.852;23.042;2023-01-15T10:38:17;95143.59;;;11.54;96.94
20013;BME280;10167;42.852;23.042;2023-01-15T10:41:05;95139.94;;;11.03;98.46
20013;BME280;10167;42.852;23.042;2023-01-15T10:43:47;95142.66;;;11.08;98.45
20013;BME280;10167;42.852;23.042;2023-01-15T10:46:21;95140.97;;;10.90;100.00
20013;BME280;10167;42.852;23.042;2023-01-15T10:48:55;95134.25;;;11.11;99.68
20013;BME280;10167;42.852;23.042;2023-01-15T10:51:28;95124.19;;;11.25;99.65
20013;BME280;10167;42.852;23.042;2023-01-15T10:54:02;95118.38;;;11.00;99.88
20013;BME280;10167;42.852;23.042;2023-01-15T10:56:39;95122.50;;;11.07;100.00
20013;BME280;10167;42.852;23.042;2023-01-15T10:59:13;95111.88;;;10.44;100.00
20013;BME280;10167;42.852;23.042;2023-01-15T11:01:44;95113.00;;;10.71;100.00
20013;BME280;10167;42.852;23.042;2023-01-15T11:04:15;95104.75;;;9.91;100.00
20013;BME280;10167;42.852;23.042;2023-01-15T11:06:44;95096.63;;;10.16;100.00
20013;BME280;10167;42.852;23.042;2023-01-15T11:09:22;95096.66;;;10.63;100.00
20013;BME280;10167;42.852;23.042;2023-01-15T11:12:07;95093.91;;;10.34;100.00
20013;BME280;10167;42.852;23.042;2023-01-15T11:14:58;95086.56;;;10.25;100.00
20013;BME280;10167;42.852;23.042;2023-01-15T11:17:49;95084.81;;;10.30;100.00
20013;BME280;10167;42.852;23.042;2023-01-15T11:20:42;95081.22;;;10.13;100.00
20013;BME280;10167;42.852;23.042;2023-01-15T11:23:14;95083.63;;;10.03;100.00
20013;BME280;10167;42.852;23.042;2023-01-15T11:25:49;95079.13;;;9.92;100.00
20013;BME280;10167;42.852;23.042;2023-01-15T11:28:30;95075.59;;;10.21;100.00
20013;BME280;10167;42.852;23.042;2023-01-15T11:31:02;95064.72;;;9.88;100.00
20013;BME280;10167;42.852;23.042;2023-01-15T11:33:31;95075.13;;;10.12;100.00
20013;BME280;10167;42.852;23.042;2023-01-15T11:36:02;95064.97;;;10.09;100.00
20013;BME280;10167;42.852;23.042;2023-01-15T11:38:42;95053.78;;;9.72;100.00
20013;BME280;10167;42.852;23.042;2023-01-15T11:41:21;95055.25;;;9.57;100.00
20013;BME280;10167;42.852;23.042;2023-01-15T11:43:55;95051.00;;;9.56;100.00
20013;BME280;10167;42.852;23.042;2023-01-15T11:46:44;95046.66;;;9.31;100.00
20013;BME280;10167;42.852;23.042;2023-01-15T11:49:31;95038.69;;;9.20;100.00
20013;BME280;10167;42.852;23.042;2023-01-15T11:52:26;95051.66;;;9.51;100.00
20013;BME280;10167;42.852;23.042;2023-01-15T11:54:55;95049.28;;;9.73;100.00
20013;BME280;10167;42.852;23.042;2023-01-15T11:57:30;95046.03;;;9.48;100.00
20013;BME280;10167;42.852;23.042;2023-01-15T11:59:59;95044.50;;;9.40;100.00
20013;BME280;10167;42.852;23.042;2023-01-15T12:02:32;95036.53;;;9.28;100.00
20013;BME280;10167;42.852;23.042;2023-01-15T12:05:13;95035.28;;;9.31;100.00
20013;BME280;10167;42.852;23.042;2023-01-15T12:07:44;95029.16;;;9.19;100.00
20013;BME280;10167;42.852;23.042;2023-01-15T12:10:19;95019.94;;;9.09;100.00
20013;BME280;10167;42.852;23.042;2023-01-15T12:13:19;95009.22;;;8.38;100.00
20013;BME280;10167;42.852;23.042;2023-01-15T12:15:55;95011.84;;;8.20;100.00
20013;BME280;10167;42.852;23.042;2023-01-15T12:18:52;95007.56;;;8.44;100.00
20013;BME280;10167;42.852;23.042;2023-01-15T12:21:38;95005.22;;;8.54;100.00
20013;BME280;10167;42.852;23.042;2023-01-15T12:24:33;94999.47;;;8.38;100.00
20013;BME280;10167;42.852;23.042;2023-01-15T12:27:08;94991.84;;;8.49;100.00
20013;BME280;10167;42.852;23.042;2023-01-15T12:29:46;94990.00;;;8.31;100.00
20013;BME280;10167;42.852;23.042;2023-01-15T12:32:19;94988.22;;;8.31;100.00
20013;BME280;10167;42.852;23.042;2023-01-15T12:34:54;94991.69;;;8.25;100.00
20013;BME280;10167;42.852;23.042;2023-01-15T12:37:28;94988.16;;;8.13;100.00
20013;BME280;10167;42.852;23.042;2023-01-15T12:40:07;94994.72;;;7.86;100.00
20013;BME280;10167;42.852;23.042;2023-01-15T12:42:48;94983.59;;;7.84;100.00
20013;BME280;10167;42.852;23.042;2023-01-15T12:45:41;94992.69;;;7.88;100.00
20013;BME280;10167;42.852;23.042;2023-01-15T12:48:17;94988.53;;;7.74;100.00
20013;BME280;10167;42.852;23.042;2023-01-15T12:50:48;94975.19;;;7.93;100.00
20013;BME280;10167;42.852;23.042;2023-01-15T12:53:21;94985.91;;;7.74;100.00
20013;BME280;10167;42.852;23.042;2023-01-15T12:55:56;94976.31;;;7.79;100.00
20013;BME280;10167;42.852;23.042;2023-01-15T12:58:36;94972.31;;;7.95;100.00
20013;BME280;10167;42.852;23.042;2023-01-15T13:01:14;94974.56;;;7.73;100.00
20013;BME280;10167;42.852;23.042;2023-01-15T13:03:52;94985.81;;;7.87;100.00
20013;BME280;10167;42.852;23.042;2023-01-15T13:06:26;94969.06;;;7.75;100.00
20013;BME280;10167;42.852;23.042;2023-01-15T13:09:02;94971.00;;;7.86;100.00
20013;BME280;10167;42.852;23.042;2023-01-15T13:11:34;94964.75;;;7.80;100.00
20013;BME280;10167;42.852;23.042;2023-01-15T13:14:09;94957.00;;;7.85;100.00
20013;BME280;10167;42.852;23.042;2023-01-15T13:16:48;94962.22;;;7.92;100.00
20013;BME280;10167;42.852;23.042;2023-01-15T13:19:31;94965.63;;;7.74;100.00
20013;BME280;10167;42.852;23.042;2023-01-15T13:22:08;94949.22;;;7.90;100.00
20013;BME280;10167;42.852;23.042;2023-01-15T13:25:03;94942.28;;;7.78;100.00